Time;durP1;ratioP1;P1;durP2;ratioP2;P2;SDS_P1;SDS_P2;PMS_P1;PMS_P2;Temp;Humidity;BMP_temperature;BMP_pressure;BME280_temperature;BME280_humidity;BME280_pressure;Samples;Min_cycle;Max_cycle;Signal;HPM_P1;HPM_P2
2023/09/17 00:00:30;;;;;;;7.75;4.15;;;18.30;99.90;;;;;;5054761;28;20025;-73
2023/09/17 00:02:55;;;;;;;7.53;4.70;;;18.10;99.90;;;;;;5054609;28;20104;-73
2023/09/17 00:05:22;;;;;;;4.55;3.47;;;18.00;99.90;;;;;;5054316;28;20028;-73
2023/09/17 00:07:47;;;;;;;11.25;4.00;;;18.10;99.90;;;;;;5054486;28;20091;-73
2023/09/17 00:10:13;;;;;;;6.65;4.45;;;18.20;99.90;;;;;;5036994;28;20481;-73
2023/09/17 00:12:39;;;;;;;11.18;4.70;;;18.10;99.90;;;;;;5054320;28;20025;-73
2023/09/17 00:15:05;;;;;;;5.97;4.50;;;18.10;99.90;;;;;;5036346;28;20465;-73
2023/09/17 00:17:31;;;;;;;7.47;4.80;;;18.10;99.90;;;;;;5054238;28;20033;-73
2023/09/17 00:19:56;;;;;;;6.30;4.00;;;18.40;99.90;;;;;;5054186;28;20021;-73
2023/09/17 00:22:22;;;;;;;7.60;4.50;;;18.10;99.90;;;;;;5054001;28;20073;-73
2023/09/17 00:24:47;;;;;;;6.57;4.50;;;18.10;99.90;;;;;;5036131;28;20078;-73
2023/09/17 00:27:13;;;;;;;9.18;4.88;;;18.10;99.90;;;;;;5053886;28;20155;-72
2023/09/17 00:29:38;;;;;;;8.77;5.53;;;18.10;99.90;;;;;;5053929;28;20056;-72
2023/09/17 00:32:04;;;;;;;7.03;4.45;;;18.10;99.90;;;;;;5053822;28;20043;-72
2023/09/17 00:34:30;;;;;;;8.00;4.90;;;18.10;99.90;;;;;;5054133;28;20021;-72
2023/09/17 00:36:56;;;;;;;7.00;4.95;;;18.00;99.90;;;;;;5036046;28;20472;-72
2023/09/17 00:39:21;;;;;;;5.30;4.30;;;17.90;99.90;;;;;;5053759;28;20484;-72
2023/09/17 00:41:47;;;;;;;6.57;4.82;;;18.00;99.90;;;;;;5054276;28;20032;-72
2023/09/17 00:44:12;;;;;;;8.70;5.18;;;18.00;99.90;;;;;;5053588;28;20028;-72
2023/09/17 00:46:38;;;;;;;7.80;4.45;;;18.00;99.90;;;;;;5035758;28;20021;-72
2023/09/17 00:49:12;;;;;;;8.50;5.22;;;17.90;99.90;;;;;;5035574;28;20029;-72
2023/09/17 00:51:38;;;;;;;6.18;4.05;;;17.90;99.90;;;;;;5053643;28;20032;-73
2023/09/17 00:54:04;;;;;;;9.02;5.05;;;17.90;99.90;;;;;;5035537;28;20472;-73
2023/09/17 00:56:29;;;;;;;8.90;5.60;;;17.90;99.90;;;;;;5053500;28;20017;-73
2023/09/17 00:58:56;;;;;;;7.75;5.20;;;17.90;99.90;;;;;;5053517;28;20029;-72
2023/09/17 01:01:21;;;;;;;10.05;5.43;;;17.90;99.90;;;;;;5054009;28;20033;-72
2023/09/17 01:03:47;;;;;;;6.95;4.85;;;17.90;99.90;;;;;;5053487;28;20108;-72
2023/09/17 01:06:13;;;;;;;9.52;4.80;;;17.90;99.90;;;;;;5053275;28;20029;-73
2023/09/17 01:08:40;;;;;;;6.38;5.03;;;17.90;99.90;;;;;;5053859;28;20396;-72
2023/09/17 01:11:09;;;;;;;7.28;4.53;;;17.90;99.90;;;;;;5035533;28;20049;-72
2023/09/17 01:13:39;;;;;;;11.10;4.57;;;17.90;99.90;;;;;;5035365;28;20476;-72
2023/09/17 01:16:05;;;;;;;6.80;5.28;;;17.80;99.90;;;;;;5035588;28;20032;-72
2023/09/17 01:18:32;;;;;;;7.25;4.90;;;17.80;99.90;;;;;;5053369;28;20035;-72
2023/09/17 01:21:15;;;;;;;6.68;4.40;;;17.70;99.90;;;;;;5035387;28;20021;-72
2023/09/17 01:23:53;;;;;;;6.50;4.53;;;17.80;99.90;;;;;;5053175;28;20025;-72
2023/09/17 01:26:27;;;;;;;7.05;4.97;;;17.90;99.90;;;;;;5035291;28;20025;-72
2023/09/17 01:28:54;;;;;;;7.10;4.30;;;17.80;99.90;;;;;;5035213;28;20039;-72
2023/09/17 01:31:20;;;;;;;7.18;4.63;;;17.80;99.90;;;;;;5035136;28;20063;-72
2023/09/17 01:33:50;;;;;;;7.28;4.97;;;17.80;99.90;;;;;;5053139;28;20021;-72
2023/09/17 01:36:21;;;;;;;8.55;5.50;;;17.80;99.90;;;;;;5035071;28;20421;-72
2023/09/17 01:38:57;;;;;;;11.35;6.18;;;17.80;99.90;;;;;;5054320;28;20032;-72
2023/09/17 01:41:25;;;;;;;8.32;5.30;;;17.80;99.90;;;;;;5057314;28;20055;-73
2023/09/17 01:43:51;;;;;;;10.25;4.93;;;17.70;99.90;;;;;;5039454;28;20407;-73
2023/09/17 01:46:16;;;;;;;10.30;5.38;;;17.90;99.90;;;;;;5057151;28;20017;-73
2023/09/17 01:48:42;;;;;;;7.90;5.40;;;17.70;99.90;;;;;;5057064;28;20078;-73
2023/09/17 01:51:11;;;;;;;9.63;6.05;;;17.70;99.90;;;;;;5057135;28;20025;-72
2023/09/17 01:53:37;;;;;;;8.40;5.13;;;17.60;99.90;;;;;;5056871;28;20036;-73
2023/09/17 01:56:04;;;;;;;11.05;5.75;;;17.60;99.90;;;;;;5056915;28;20022;-72
2023/09/17 01:58:33;;;;;;;10.70;5.60;;;17.60;99.90;;;;;;5039024;28;20032;-72
2023/09/17 02:00:59;;;;;;;8.57;5.00;;;17.60;99.90;;;;;;5057001;28;20028;-72
2023/09/17 02:03:25;;;;;;;7.97;5.18;;;17.60;99.90;;;;;;5039029;28;20476;-72
2023/09/17 02:05:50;;;;;;;8.05;5.38;;;17.60;99.90;;;;;;5056875;28;20182;-72
2023/09/17 02:08:16;;;;;;;7.15;4.85;;;17.60;99.90;;;;;;5056688;28;20032;-72
2023/09/17 02:10:41;;;;;;;7.15;5.30;;;17.60;99.90;;;;;;5056663;28;20426;-72
2023/09/17 02:13:07;;;;;;;8.18;5.72;;;17.60;99.90;;;;;;5057496;28;20028;-72
2023/09/17 02:15:33;;;;;;;10.50;5.30;;;17.60;99.90;;;;;;5056710;28;20033;-72
2023/09/17 02:17:58;;;;;;;8.70;5.57;;;17.60;99.90;;;;;;5038878;28;20017;-73
2023/09/17 02:20:24;;;;;;;6.80;5.60;;;17.50;99.90;;;;;;5056556;28;20025;-73
2023/09/17 02:22:50;;;;;;;8.05;5.20;;;17.50;99.90;;;;;;5056558;28;20029;-73
2023/09/17 02:25:16;;;;;;;9.02;5.13;;;17.50;99.90;;;;;;5056805;28;20070;-73
2023/09/17 02:27:42;;;;;;;9.25;5.63;;;17.50;99.90;;;;;;5056389;28;20392;-73
2023/09/17 02:30:08;;;;;;;8.75;5.40;;;17.50;99.90;;;;;;5056440;28;20017;-73
2023/09/17 02:32:34;;;;;;;10.32;6.07;;;17.50;99.90;;;;;;5038421;28;20162;-73
2023/09/17 02:35:00;;;;;;;8.38;4.88;;;17.40;99.90;;;;;;5056158;28;20040;-73
2023/09/17 02:37:26;;;;;;;8.35;5.38;;;18.40;99.90;;;;;;5038427;28;20071;-72
2023/09/17 02:39:51;;;;;;;9.70;5.90;;;17.50;99.90;;;;;;5056150;28;20098;-73
2023/09/17 02:42:17;;;;;;;7.60;5.78;;;17.50;99.90;;;;;;5038283;28;20021;-73
2023/09/17 02:44:43;;;;;;;11.07;6.55;;;17.40;99.90;;;;;;5055856;28;20094;-73
2023/09/17 02:47:09;;;;;;;9.23;6.32;;;17.30;99.90;;;;;;5056021;28;20028;-73
2023/09/17 02:49:35;;;;;;;9.05;5.63;;;17.20;99.90;;;;;;5055251;28;20056;-73
2023/09/17 02:52:01;;;;;;;10.77;5.68;;;17.10;99.90;;;;;;5055244;28;20025;-73
2023/09/17 02:54:27;;;;;;;7.97;5.75;;;17.10;99.90;;;;;;5055642;28;20413;-73
2023/09/17 02:56:53;;;;;;;8.70;5.28;;;17.00;99.90;;;;;;5037901;28;20048;-73
2023/09/17 02:59:19;;;;;;;9.82;6.40;;;16.90;99.90;;;;;;5055826;28;20025;-73
2023/09/17 03:01:45;;;;;;;10.15;6.13;;;17.00;99.90;;;;;;5055814;28;20364;-73
2023/09/17 03:04:10;;;;;;;10.35;5.68;;;17.20;99.90;;;;;;5055612;28;20035;-73
2023/09/17 03:06:37;;;;;;;17.88;6.97;;;16.90;99.90;;;;;;5055569;28;20124;-73
2023/09/17 03:09:07;;;;;;;7.47;5.72;;;16.90;99.90;;;;;;5055608;28;20028;-73
2023/09/17 03:11:33;;;;;;;7.90;5.80;;;16.90;99.90;;;;;;5055930;28;20021;-73
2023/09/17 03:13:58;;;;;;;8.65;6.05;;;16.80;99.90;;;;;;5055411;28;20365;-73
2023/09/17 03:16:24;;;;;;;10.32;5.95;;;16.80;99.90;;;;;;5037437;28;20029;-73
2023/09/17 03:18:49;;;;;;;7.75;5.32;;;16.80;99.90;;;;;;5055330;28;20102;-72
2023/09/17 03:21:16;;;;;;;8.70;6.18;;;16.90;99.90;;;;;;5055270;28;20032;-73
2023/09/17 03:23:41;;;;;;;8.55;5.55;;;16.70;99.90;;;;;;5037309;28;20132;-73
2023/09/17 03:26:09;;;;;;;9.02;6.30;;;16.70;99.90;;;;;;5055179;28;20100;-73
2023/09/17 03:28:34;;;;;;;10.55;6.10;;;16.70;99.90;;;;;;5037188;28;20017;-73
2023/09/17 03:31:01;;;;;;;13.15;6.43;;;16.70;99.90;;;;;;5055087;28;20540;-73
2023/09/17 03:33:27;;;;;;;11.80;6.95;;;16.60;99.90;;;;;;5055026;28;20472;-73
2023/09/17 03:35:53;;;;;;;10.43;6.90;;;16.50;99.90;;;;;;5055007;28;20031;-73
2023/09/17 03:38:18;;;;;;;10.95;7.43;;;17.00;99.90;;;;;;5055060;28;20025;-73
2023/09/17 03:40:44;;;;;;;10.80;7.30;;;16.40;99.90;;;;;;5037175;28;20017;-73
2023/09/17 03:43:10;;;;;;;11.55;7.72;;;16.30;99.90;;;;;;5054917;28;20047;-73
2023/09/17 03:45:35;;;;;;;9.85;7.90;;;16.30;99.90;;;;;;5054697;28;20460;-73
2023/09/17 03:48:01;;;;;;;13.82;8.45;;;16.50;99.90;;;;;;5037077;28;20032;-76
2023/09/17 03:50:27;;;;;;;15.85;8.70;;;16.30;99.90;;;;;;5054823;28;20029;-76
2023/09/17 03:52:56;;;;;;;11.13;7.47;;;16.20;99.90;;;;;;5036936;28;20102;-75
2023/09/17 03:55:23;;;;;;;;;;;16.20;99.90;;;;;;5054975;28;20116;-74
2023/09/17 03:57:49;;;;;;;13.07;8.32;;;16.10;99.90;;;;;;5054639;28;19936;-75
2023/09/17 04:00:16;;;;;;;11.85;8.00;;;16.10;99.90;;;;;;5036718;28;20057;-75
2023/09/17 04:02:42;;;;;;;11.30;7.72;;;16.10;99.90;;;;;;5036469;28;20032;-75
2023/09/17 04:05:18;;;;;;;12.20;8.00;;;16.00;99.90;;;;;;5054504;28;20017;-75
2023/09/17 04:07:45;;;;;;;13.80;8.63;;;16.00;99.90;;;;;;5054537;28;20025;-75
2023/09/17 04:10:12;;;;;;;12.05;8.68;;;16.10;99.90;;;;;;5036713;28;20092;-75
2023/09/17 04:12:39;;;;;;;16.27;8.48;;;16.00;99.90;;;;;;5054387;28;20052;-75
2023/09/17 04:15:12;;;;;;;12.73;8.02;;;16.00;99.90;;;;;;5054320;28;20482;-75
2023/09/17 04:17:39;;;;;;;11.82;8.15;;;16.00;99.90;;;;;;5054373;28;20515;-75
2023/09/17 04:20:09;;;;;;;12.23;8.70;;;16.00;99.90;;;;;;5036315;28;20021;-75
2023/09/17 04:22:36;;;;;;;12.70;8.52;;;16.00;99.90;;;;;;5054264;28;20453;-75
2023/09/17 04:25:08;;;;;;;12.95;9.02;;;16.00;99.90;;;;;;5036104;28;20041;-75
2023/09/17 04:27:34;;;;;;;12.93;7.93;;;16.00;99.90;;;;;;5054644;28;20021;-75
2023/09/17 04:29:59;;;;;;;11.07;7.15;;;16.10;99.90;;;;;;5037251;28;20078;-75
2023/09/17 04:32:25;;;;;;;9.48;6.05;;;15.90;99.90;;;;;;5054096;28;20104;-75
2023/09/17 04:34:52;;;;;;;8.68;6.10;;;15.90;99.90;;;;;;5036060;28;20025;-75
2023/09/17 04:37:19;;;;;;;9.32;5.93;;;15.90;99.90;;;;;;5053905;28;20044;-75
2023/09/17 04:39:46;;;;;;;12.65;7.00;;;15.90;99.90;;;;;;5053827;28;20021;-74
2023/09/17 04:42:12;;;;;;;8.40;5.65;;;15.90;99.90;;;;;;5053657;28;20108;-75
2023/09/17 04:44:38;;;;;;;9.30;5.85;;;15.90;99.90;;;;;;5035854;28;20447;-75
2023/09/17 04:47:03;;;;;;;7.97;5.60;;;15.80;99.90;;;;;;5035623;28;20025;-75
2023/09/17 04:49:31;;;;;;;7.25;5.28;;;15.80;99.90;;;;;;5053397;28;20036;-75
2023/09/17 04:51:59;;;;;;;8.33;5.33;;;15.80;99.90;;;;;;5053882;28;20488;-75
2023/09/17 04:54:25;;;;;;;7.68;5.40;;;15.80;99.90;;;;;;5035706;28;20024;-75
2023/09/17 04:56:50;;;;;;;11.02;6.25;;;15.80;99.90;;;;;;5036004;28;20032;-75
2023/09/17 04:59:16;;;;;;;10.48;5.90;;;15.80;99.90;;;;;;5054081;28;20028;-75
2023/09/17 05:01:41;;;;;;;13.15;6.22;;;15.80;99.90;;;;;;5053528;28;20033;-75
2023/09/17 05:04:07;;;;;;;9.68;6.00;;;16.60;99.90;;;;;;5054043;28;20028;-75
2023/09/17 05:06:33;;;;;;;9.88;5.60;;;15.70;99.90;;;;;;5053384;28;20430;-75
2023/09/17 05:08:58;;;;;;;11.00;6.10;;;15.70;99.90;;;;;;5035492;28;20021;-75
2023/09/17 05:11:24;;;;;;;7.60;5.97;;;15.70;99.90;;;;;;5053926;28;20031;-75
2023/09/17 05:13:49;;;;;;;7.05;5.53;;;15.70;99.90;;;;;;5034814;28;20036;-75
2023/09/17 05:16:18;;;;;;;9.13;6.20;;;15.70;99.90;;;;;;5053440;28;20070;-74
2023/09/17 05:18:44;;;;;;;10.13;6.30;;;15.70;99.90;;;;;;5053276;28;20078;-75
2023/09/17 05:21:09;;;;;;;11.90;6.32;;;15.70;99.90;;;;;;5053830;28;20376;-74
2023/09/17 05:23:35;;;;;;;10.70;6.82;;;15.70;99.90;;;;;;5053200;28;20025;-74
2023/09/17 05:26:01;;;;;;;11.65;7.03;;;15.60;99.90;;;;;;5054089;28;20384;-75
2023/09/17 05:28:27;;;;;;;12.82;7.00;;;15.70;99.90;;;;;;5053339;28;20020;-75
2023/09/17 05:30:55;;;;;;;11.23;7.22;;;15.60;99.90;;;;;;5053240;28;20028;-74
2023/09/17 05:33:21;;;;;;;15.73;7.68;;;15.60;99.90;;;;;;5053211;28;20017;-74
2023/09/17 05:35:47;;;;;;;11.68;7.95;;;15.60;99.90;;;;;;5035651;28;20428;-76
2023/09/17 05:38:12;;;;;;;13.93;7.78;;;15.50;99.90;;;;;;5053130;28;20064;-76
2023/09/17 05:40:38;;;;;;;12.43;7.38;;;15.40;99.90;;;;;;5053175;28;20025;-75
2023/09/17 05:43:04;;;;;;;12.85;8.07;;;15.40;99.90;;;;;;5035294;28;20025;-76
2023/09/17 05:45:29;;;;;;;13.77;8.63;;;16.00;99.90;;;;;;5053112;28;20060;-76
2023/09/17 05:47:55;;;;;;;17.17;8.38;;;15.30;99.90;;;;;;5053340;28;20021;-77
2023/09/17 05:50:21;;;;;;;13.80;8.73;;;15.30;99.90;;;;;;5035599;28;20029;-76
2023/09/17 05:52:46;;;;;;;15.93;8.10;;;15.20;99.90;;;;;;5053048;28;20025;-76
2023/09/17 05:55:12;;;;;;;15.10;8.32;;;15.20;99.90;;;;;;5035121;28;20025;-76
2023/09/17 05:57:37;;;;;;;15.00;8.50;;;15.20;99.90;;;;;;5053163;28;20108;-75
2023/09/17 06:00:04;;;;;;;17.45;9.13;;;15.10;99.90;;;;;;5052966;28;20491;-75
2023/09/17 06:02:29;;;;;;;18.80;8.88;;;15.10;99.90;;;;;;5053163;28;20055;-76
2023/09/17 06:04:55;;;;;;;17.05;9.40;;;15.10;99.90;;;;;;5034852;28;20060;-75
2023/09/17 06:07:21;;;;;;;16.40;10.50;;;15.10;99.90;;;;;;5053033;28;20017;-75
2023/09/17 06:09:47;;;;;;;16.77;10.18;;;15.10;99.90;;;;;;5035255;28;20594;-75
2023/09/17 06:12:12;;;;;;;15.68;9.20;;;15.20;99.90;;;;;;5053069;28;20090;-75
2023/09/17 06:14:39;;;;;;;20.42;9.20;;;15.10;99.90;;;;;;5052839;28;20027;-75
2023/09/17 06:17:04;;;;;;;17.15;9.82;;;15.20;99.90;;;;;;5053323;28;20029;-75
2023/09/17 06:19:31;;;;;;;15.43;8.85;;;15.10;99.90;;;;;;5052978;28;20438;-75
2023/09/17 06:21:56;;;;;;;14.43;9.50;;;15.60;99.90;;;;;;5052967;28;20029;-75
2023/09/17 06:24:22;;;;;;;16.15;9.32;;;15.20;99.90;;;;;;5053110;28;20054;-75
2023/09/17 06:26:48;;;;;;;17.88;9.95;;;15.20;99.90;;;;;;5056031;28;20028;-76
2023/09/17 06:29:13;;;;;;;14.40;9.52;;;15.10;99.90;;;;;;5054434;28;20021;-76
2023/09/17 06:31:40;;;;;;;21.48;10.40;;;15.10;99.90;;;;;;5056403;28;20556;-75
2023/09/17 06:34:05;;;;;;;21.17;10.73;;;15.10;99.90;;;;;;5037385;28;20389;-74
2023/09/17 06:36:32;;;;;;;19.75;9.77;;;15.10;99.90;;;;;;5038552;28;20036;-75
2023/09/17 06:38:57;;;;;;;17.55;10.75;;;15.10;99.90;;;;;;5056888;28;20028;-75
2023/09/17 06:41:23;;;;;;;18.10;10.60;;;15.10;99.90;;;;;;5056148;28;20499;-75
2023/09/17 06:43:48;;;;;;;17.75;10.90;;;15.10;99.90;;;;;;5038015;28;20511;-75
2023/09/17 06:46:14;;;;;;;21.10;10.45;;;15.10;99.90;;;;;;5038166;28;20028;-74
2023/09/17 06:48:40;;;;;;;17.77;9.73;;;15.00;99.90;;;;;;5056199;28;20120;-75
2023/09/17 06:51:06;;;;;;;18.02;10.07;;;15.20;99.90;;;;;;5038254;28;20033;-75
2023/09/17 06:53:31;;;;;;;22.48;11.15;;;15.20;99.90;;;;;;5056208;28;20100;-75
2023/09/17 06:55:59;;;;;;;18.75;11.02;;;15.20;99.90;;;;;;5055853;28;20056;-75
2023/09/17 06:58:24;;;;;;;19.08;10.18;;;15.20;99.90;;;;;;5055846;28;20028;-75
2023/09/17 07:00:50;;;;;;;19.58;10.95;;;;;;;;;;5055961;28;20032;-75
2023/09/17 07:03:16;;;;;;;17.02;9.60;;;15.20;99.90;;;;;;5055752;28;20025;-75
2023/09/17 07:05:41;;;;;;;19.90;11.30;;;15.20;99.90;;;;;;5037715;28;20021;-75
2023/09/17 07:08:07;;;;;;;19.15;10.82;;;15.50;99.90;;;;;;5055706;28;20074;-75
2023/09/17 07:10:33;;;;;;;24.25;10.95;;;15.30;99.90;;;;;;5055621;28;20075;-75
2023/09/17 07:12:59;;;;;;;18.75;11.48;;;15.30;99.90;;;;;;5055636;28;20017;-75
2023/09/17 07:15:25;;;;;;;18.67;10.63;;;15.20;99.90;;;;;;5055409;28;20531;-75
2023/09/17 07:17:52;;;;;;;18.23;10.65;;;15.30;99.90;;;;;;5055607;28;20017;-75
2023/09/17 07:20:19;;;;;;;18.73;11.02;;;15.30;99.90;;;;;;5055511;28;20102;-75
2023/09/17 07:22:45;;;;;;;18.92;10.60;;;15.30;99.90;;;;;;5055415;28;20017;-75
2023/09/17 07:25:11;;;;;;;20.77;12.07;;;15.90;99.90;;;;;;5055093;28;20029;-75
2023/09/17 07:27:37;;;;;;;23.75;12.73;;;15.40;99.90;;;;;;5055765;28;20025;-75
2023/09/17 07:30:03;;;;;;;19.58;11.18;;;15.80;99.90;;;;;;5055296;28;20018;-75
2023/09/17 07:32:29;;;;;;;18.42;10.65;;;15.40;99.90;;;;;;5038280;28;20122;-77
2023/09/17 07:34:55;;;;;;;21.08;11.57;;;15.50;99.90;;;;;;5056324;28;20053;-77
2023/09/17 07:37:21;;;;;;;21.90;11.88;;;15.50;99.90;;;;;;5055997;28;20017;-77
2023/09/17 07:39:49;;;;;;;22.20;11.20;;;15.50;99.90;;;;;;5056671;28;20025;-77
2023/09/17 07:42:15;;;;;;;19.15;11.63;;;17.30;99.90;;;;;;5056611;28;20025;-77
2023/09/17 07:44:40;;;;;;;20.45;11.50;;;15.50;99.90;;;;;;5055974;28;20029;-77
2023/09/17 07:47:09;;;;;;;20.17;12.02;;;15.50;99.90;;;;;;5037805;28;20419;-77
2023/09/17 07:49:36;;;;;;;19.50;11.07;;;15.60;99.90;;;;;;5037835;28;20040;-78
2023/09/17 07:52:03;;;;;;;21.65;11.95;;;15.60;99.90;;;;;;5038119;28;20021;-77
2023/09/17 07:54:30;;;;;;;21.85;12.25;;;15.60;99.90;;;;;;5055886;28;20038;-77
2023/09/17 07:56:55;;;;;;;24.95;11.38;;;15.90;99.90;;;;;;5055446;28;20021;-77
2023/09/17 07:59:21;;;;;;;20.50;10.82;;;15.70;99.90;;;;;;5055469;28;20397;-77
2023/09/17 08:01:49;;;;;;;21.17;11.48;;;15.70;99.90;;;;;;5055486;28;20072;-77
2023/09/17 08:04:15;;;;;;;21.40;12.10;;;15.60;99.90;;;;;;5055590;28;20427;-77
2023/09/17 08:06:41;;;;;;;18.08;10.32;;;15.70;99.90;;;;;;5055356;28;20032;-78
2023/09/17 08:09:06;;;;;;;18.27;10.88;;;15.70;99.90;;;;;;5056039;28;20491;-78
2023/09/17 08:11:32;;;;;;;16.75;9.93;;;15.70;99.90;;;;;;5055481;28;20024;-77
2023/09/17 08:13:58;;;;;;;18.77;10.80;;;15.80;99.90;;;;;;5055909;28;20025;-77
2023/09/17 08:16:25;;;;;;;20.65;11.30;;;15.80;99.90;;;;;;5055485;28;20025;-77
2023/09/17 08:18:51;;;;;;;15.90;10.07;;;15.80;99.90;;;;;;5055401;28;20021;-77
2023/09/17 08:21:17;;;;;;;16.05;9.35;;;16.90;99.90;;;;;;5037565;28;20028;-77
2023/09/17 08:23:44;;;;;;;16.20;9.73;;;15.90;99.90;;;;;;5055191;28;20388;-78
2023/09/17 08:26:10;;;;;;;15.07;9.00;;;15.90;99.90;;;;;;5055303;28;20033;-78
2023/09/17 08:28:37;;;;;;;15.07;9.02;;;15.90;99.90;;;;;;5037329;28;20024;-77
2023/09/17 08:31:03;;;;;;;13.35;8.02;;;15.90;99.90;;;;;;5055427;28;20353;-77
2023/09/17 08:33:28;;;;;;;16.40;8.73;;;16.20;99.90;;;;;;5054921;28;20028;-78
2023/09/17 08:35:54;;;;;;;13.10;8.77;;;15.90;99.90;;;;;;5055360;28;20472;-77
2023/09/17 08:38:20;;;;;;;14.00;7.60;;;15.90;99.90;;;;;;5055148;28;20025;-77
2023/09/17 08:40:47;;;;;;;11.10;7.07;;;15.90;99.90;;;;;;5055214;28;20021;-77
2023/09/17 08:43:14;;;;;;;12.93;7.20;;;15.90;99.90;;;;;;5055708;28;20487;-77
2023/09/17 08:45:41;;;;;;;12.70;7.50;;;16.00;99.90;;;;;;5055080;28;20078;-77
2023/09/17 08:48:07;;;;;;;9.25;5.95;;;16.00;99.90;;;;;;5053674;28;20031;-78
2023/09/17 08:50:35;;;;;;;15.68;6.80;;;16.00;99.90;;;;;;5036907;28;20056;-77
2023/09/17 08:53:07;;;;;;;10.77;6.88;;;16.00;99.90;;;;;;5055183;28;20051;-77
2023/09/17 08:55:33;;;;;;;8.65;5.60;;;16.10;99.90;;;;;;5054710;28;20392;-77
2023/09/17 08:58:31;;;;;;;11.02;6.45;;;16.40;99.90;;;;;;5036828;28;20017;-77
2023/09/17 09:01:03;;;;;;;11.35;6.07;;;16.10;99.90;;;;;;5050494;28;20045;-77
2023/09/17 09:03:30;;;;;;;12.23;7.00;;;16.20;99.90;;;;;;5055434;28;20021;-77
2023/09/17 09:05:57;;;;;;;10.10;6.32;;;16.70;99.90;;;;;;5036845;28;20025;-78
2023/09/17 09:08:24;;;;;;;14.30;6.95;;;16.30;99.90;;;;;;5037221;28;20048;-77
2023/09/17 09:10:52;;;;;;;13.27;6.90;;;16.40;99.90;;;;;;5054363;28;20020;-77
2023/09/17 09:13:20;;;;;;;11.65;7.32;;;17.30;99.90;;;;;;5036826;28;20021;-77
2023/09/17 09:15:47;;;;;;;15.40;7.90;;;16.50;99.90;;;;;;5054662;28;20027;-77
2023/09/17 09:18:13;;;;;;;12.57;8.02;;;16.60;99.90;;;;;;5036613;28;20439;-77
2023/09/17 09:20:40;;;;;;;12.15;8.13;;;16.60;99.90;;;;;;5055667;28;20025;-78
2023/09/17 09:23:06;;;;;;;11.60;7.13;;;16.90;99.90;;;;;;5055459;28;20029;-77
2023/09/17 09:25:33;;;;;;;13.20;7.28;;;16.80;99.90;;;;;;5054369;28;20025;-77
2023/09/17 09:28:00;;;;;;;12.23;7.15;;;16.80;99.90;;;;;;5036815;28;20111;-77
2023/09/17 09:30:26;;;;;;;11.82;7.18;;;16.90;99.90;;;;;;5054529;28;20021;-77
2023/09/17 09:32:51;;;;;;;15.23;8.15;;;16.90;99.90;;;;;;5036971;28;20024;-77
2023/09/17 09:35:18;;;;;;;12.95;8.60;;;17.00;99.90;;;;;;5036905;28;20025;-77
2023/09/17 09:37:48;;;;;;;13.70;7.70;;;17.10;99.90;;;;;;5036630;28;20021;-77
2023/09/17 09:40:14;;;;;;;13.02;7.45;;;17.20;99.90;;;;;;5055640;28;20021;-77
2023/09/17 09:42:42;;;;;;;11.63;7.18;;;17.30;99.90;;;;;;5054924;28;20013;-77
2023/09/17 09:45:15;;;;;;;13.65;8.13;;;17.30;99.90;;;;;;5036471;28;20041;-77
2023/09/17 09:47:48;;;;;;;11.40;7.47;;;17.30;99.90;;;;;;5036667;28;20029;-77
2023/09/17 09:50:22;;;;;;;15.40;8.00;;;17.20;99.90;;;;;;5036636;28;20052;-77
2023/09/17 09:52:48;;;;;;;12.90;7.88;;;17.10;99.90;;;;;;5054954;28;20028;-77
2023/09/17 09:55:14;;;;;;;15.98;8.52;;;17.20;99.90;;;;;;5054833;28;20049;-77
2023/09/17 09:57:41;;;;;;;11.48;7.13;;;17.00;99.90;;;;;;5054339;28;20021;-77
2023/09/17 10:00:14;;;;;;;14.18;7.55;;;17.00;99.90;;;;;;5037812;28;20052;-77
2023/09/17 10:02:40;;;;;;;16.15;7.70;;;16.90;99.90;;;;;;5058276;28;20048;-76
2023/09/17 10:05:16;;;;;;;14.68;8.48;;;17.00;99.90;;;;;;5039514;28;20020;-77
2023/09/17 10:07:45;;;;;;;12.02;7.32;;;17.00;99.90;;;;;;5058530;28;20031;-77
2023/09/17 10:10:11;;;;;;;11.65;7.95;;;17.00;99.90;;;;;;5057747;28;20020;-77
2023/09/17 10:12:37;;;;;;;18.83;8.32;;;17.00;99.90;;;;;;5057778;28;20021;-77
2023/09/17 10:15:04;;;;;;;15.15;9.20;;;17.00;99.90;;;;;;5057286;28;20035;-77
2023/09/17 10:17:33;;;;;;;13.27;8.13;;;17.10;99.90;;;;;;5057241;28;20028;-77
2023/09/17 10:20:00;;;;;;;12.80;7.72;;;17.30;99.90;;;;;;5057323;28;20044;-77
2023/09/17 10:22:26;;;;;;;19.05;8.70;;;17.00;99.90;;;;;;5056670;28;20083;-75
2023/09/17 10:24:53;;;;;;;12.18;8.15;;;17.00;99.90;;;;;;5056530;28;20032;-74
2023/09/17 10:27:21;;;;;;;15.40;9.02;;;17.10;99.90;;;;;;5057037;28;20471;-75
2023/09/17 10:29:50;;;;;;;18.05;9.35;;;17.10;99.90;;;;;;5039116;28;20017;-77
2023/09/17 10:32:18;;;;;;;14.90;9.23;;;17.30;99.90;;;;;;5038977;28;20029;-77
2023/09/17 10:34:45;;;;;;;16.23;9.75;;;17.50;99.90;;;;;;5039033;28;20021;-77
2023/09/17 10:37:13;;;;;;;15.40;9.70;;;18.30;99.90;;;;;;5057317;28;20024;-77
2023/09/17 10:39:40;;;;;;;16.03;9.20;;;18.00;99.90;;;;;;5056843;28;20369;-77
2023/09/17 10:42:06;;;;;;;14.30;9.35;;;18.00;99.90;;;;;;5038497;28;20037;-77
2023/09/17 10:44:36;;;;;;;16.17;10.02;;;18.20;99.90;;;;;;5038587;28;20036;-77
2023/09/17 10:47:06;;;;;;;16.92;9.32;;;18.10;99.90;;;;;;5057431;28;20029;-77
2023/09/17 10:49:36;;;;;;;16.33;9.90;;;18.20;99.90;;;;;;5038763;28;20179;-77
2023/09/17 10:52:02;;;;;;;15.65;9.68;;;18.20;99.90;;;;;;5056567;28;20037;-77
2023/09/17 10:54:28;;;;;;;18.13;9.38;;;18.20;99.90;;;;;;5038453;28;20032;-77
2023/09/17 10:56:55;;;;;;;17.13;9.27;;;18.20;99.90;;;;;;5038404;28;20029;-77
2023/09/17 10:59:22;;;;;;;16.08;9.20;;;18.60;99.90;;;;;;5056408;28;20018;-77
2023/09/17 11:01:49;;;;;;;17.30;9.93;;;18.00;99.90;;;;;;5056449;28;20025;-77
2023/09/17 11:04:19;;;;;;;16.80;10.73;;;18.00;99.90;;;;;;5056154;28;20025;-77
2023/09/17 11:06:47;;;;;;;16.80;10.90;;;18.00;99.90;;;;;;5056595;28;20399;-77
2023/09/17 11:09:14;;;;;;;17.60;10.70;;;18.00;99.90;;;;;;5056246;28;20017;-77
2023/09/17 11:11:40;;;;;;;20.67;11.13;;;18.00;99.90;;;;;;5054856;28;20435;-77
2023/09/17 11:14:08;;;;;;;20.98;10.80;;;18.00;99.90;;;;;;5038018;28;20025;-77
2023/09/17 11:16:36;;;;;;;20.30;11.82;;;18.00;99.90;;;;;;5055747;28;20021;-77
2023/09/17 11:19:05;;;;;;;22.05;11.20;;;17.90;99.90;;;;;;5055639;28;20021;-77
2023/09/17 11:21:33;;;;;;;22.13;11.90;;;17.80;99.90;;;;;;5055737;28;20098;-77
2023/09/17 11:24:02;;;;;;;23.73;12.02;;;18.50;99.90;;;;;;5055848;28;20025;-77
2023/09/17 11:26:29;;;;;;;23.50;12.48;;;18.50;99.90;;;;;;5037609;28;20025;-77
2023/09/17 11:28:56;;;;;;;27.38;13.48;;;17.90;99.90;;;;;;5055502;28;20032;-77
2023/09/17 11:31:25;;;;;;;25.08;12.25;;;18.10;99.90;;;;;;5055532;28;20021;-77
2023/09/17 11:33:51;;;;;;;25.17;12.70;;;17.90;99.90;;;;;;5055270;28;20025;-77
2023/09/17 11:36:17;;;;;;;22.40;13.75;;;18.20;99.90;;;;;;5055631;28;20108;-77
2023/09/17 11:38:46;;;;;;;30.13;14.40;;;17.90;99.90;;;;;;5055337;28;20056;-77
2023/09/17 11:41:15;;;;;;;25.08;13.00;;;18.00;99.90;;;;;;5055337;28;20033;-77
2023/09/17 11:43:48;;;;;;;28.35;14.07;;;18.10;99.90;;;;;;5037389;28;20103;-77
2023/09/17 11:46:15;;;;;;;25.35;12.98;;;18.80;99.90;;;;;;5054998;28;20021;-77
2023/09/17 11:48:43;;;;;;;33.40;14.30;;;18.10;99.90;;;;;;5055238;28;20025;-77
2023/09/17 11:51:28;;;;;;;;;;;18.20;99.90;;;;;;5055638;28;20100;-77
2023/09/17 11:53:58;;;;;;;33.00;14.77;;;18.30;99.90;;;;;;5055124;28;19904;-77
2023/09/17 11:56:27;;;;;;;31.27;14.75;;;18.30;99.90;;;;;;5055028;28;20028;-77
2023/09/17 11:59:01;;;;;;;28.13;14.82;;;18.30;99.90;;;;;;5055047;28;20039;-77
2023/09/17 12:01:29;;;;;;;32.22;15.38;;;18.40;99.90;;;;;;5055157;28;20021;-77
2023/09/17 12:03:55;;;;;;;32.97;15.82;;;18.50;99.90;;;;;;5036888;28;20025;-77
2023/09/17 12:06:21;;;;;;;32.30;15.68;;;18.40;99.90;;;;;;5054870;28;20017;-77
2023/09/17 12:08:47;;;;;;;33.28;15.77;;;18.50;99.90;;;;;;5054840;28;20021;-77
2023/09/17 12:11:21;;;;;;;30.60;16.52;;;18.50;99.90;;;;;;5054699;28;20017;-77
2023/09/17 12:13:56;;;;;;;32.53;16.08;;;18.50;99.90;;;;;;5037212;28;20025;-76
2023/09/17 12:16:27;;;;;;;32.28;15.35;;;18.50;99.90;;;;;;5054910;28;20047;-77
2023/09/17 12:18:53;;;;;;;30.27;15.32;;;18.60;99.90;;;;;;5036591;28;20500;-77
2023/09/17 12:21:30;;;;;;;36.13;17.73;;;18.60;99.90;;;;;;5054380;28;20021;-75
2023/09/17 12:24:06;;;;;;;35.05;15.90;;;18.60;99.90;;;;;;5054384;28;20025;-75
2023/09/17 12:27:14;;;;;;;34.20;16.30;;;18.60;99.90;;;;;;5034547;28;20116;-75
2023/09/17 12:29:40;;;;;;;;;;;18.70;99.90;;;;;;5053646;28;20017;-75
2023/09/17 12:32:07;;;;;;;32.22;16.02;;;18.70;99.90;;;;;;5054305;28;19904;-75
2023/09/17 12:34:37;;;;;;;37.13;17.65;;;18.70;99.90;;;;;;5054387;28;20021;-75
2023/09/17 12:37:06;;;;;;;41.38;19.05;;;18.80;99.90;;;;;;5054572;28;20104;-75